Time;durP1;ratioP1;P1;durP2;ratioP2;P2;SDS_P1;SDS_P2;PMS_P1;PMS_P2;Temp;Humidity;BMP_temperature;BMP_pressure;BME280_temperature;BME280_humidity;BME280_pressure;Samples;Min_cycle;Max_cycle;Signal;HPM_P1;HPM_P2
2020/12/14 00:02:03;;;;;;;11.88;6.20;;;3.70;99.90;;;;;;5091113;28;20028;-49
2020/12/14 00:05:08;;;;;;;16.42;8.25;;;3.60;99.90;;;;;;5090911;28;20513;-50
2020/12/14 00:08:12;;;;;;;69.93;27.52;;;3.60;99.90;;;;;;5090421;28;20046;-51
2020/12/14 00:11:16;;;;;;;50.58;18.92;;;3.50;99.90;;;;;;5090594;28;20050;-51
2020/12/14 00:14:20;;;;;;;25.90;9.57;;;3.50;99.90;;;;;;5090422;28;20043;-49
2020/12/14 00:17:25;;;;;;;13.23;7.00;;;3.50;99.90;;;;;;5090492;28;20414;-49
2020/12/14 00:20:29;;;;;;;15.98;6.07;;;3.50;99.90;;;;;;5090030;28;20399;-55
2020/12/14 00:23:33;;;;;;;10.93;6.07;;;3.50;99.90;;;;;;5089952;28;20398;-50
2020/12/14 00:26:37;;;;;;;13.52;9.13;;;3.50;99.90;;;;;;5089441;28;20039;-50
2020/12/14 00:29:42;;;;;;;18.17;9.70;;;3.50;99.90;;;;;;5089665;28;20050;-50
2020/12/14 00:32:46;;;;;;;21.63;12.95;;;3.50;99.90;;;;;;5090052;28;20510;-50
2020/12/14 00:35:50;;;;;;;27.40;16.00;;;3.50;99.90;;;;;;5076485;28;20038;-49
2020/12/14 00:38:54;;;;;;;22.55;13.25;;;3.40;99.90;;;;;;5089872;28;20043;-49
2020/12/14 00:41:58;;;;;;;17.02;11.50;;;3.20;99.90;;;;;;5090270;28;20521;-49
2020/12/14 00:45:03;;;;;;;21.17;13.20;;;3.30;99.90;;;;;;5090113;28;20533;-50
2020/12/14 00:48:07;;;;;;;21.60;13.00;;;3.30;99.90;;;;;;5090077;28;20063;-51
2020/12/14 00:51:11;;;;;;;18.52;12.75;;;3.30;99.90;;;;;;5089477;28;20418;-50
2020/12/14 00:54:15;;;;;;;66.22;38.83;;;3.30;99.90;;;;;;5089914;28;20046;-50
2020/12/14 00:57:20;;;;;;;25.27;15.43;;;3.20;99.90;;;;;;5090149;28;20043;-50
2020/12/14 01:00:24;;;;;;;29.98;18.50;;;3.20;99.90;;;;;;5071619;28;20048;-50
2020/12/14 01:03:30;;;;;;;29.83;19.25;;;3.20;99.90;;;;;;5083968;28;20055;-49
2020/12/14 01:06:34;;;;;;;29.50;18.35;;;3.20;99.90;;;;;;5088755;28;20055;-52
2020/12/14 01:09:37;;;;;;;25.30;16.25;;;3.20;99.90;;;;;;5075071;28;20066;-52
2020/12/14 01:12:42;;;;;;;28.52;16.95;;;3.30;99.90;;;;;;5088198;28;20051;-52
2020/12/14 01:15:46;;;;;;;48.30;24.73;;;3.20;99.90;;;;;;5086927;28;20042;-51
2020/12/14 01:18:51;;;;;;;25.88;16.02;;;3.20;99.90;;;;;;5081345;28;20043;-50
2020/12/14 01:21:55;;;;;;;27.70;18.48;;;3.20;99.90;;;;;;5077907;28;20110;-49
2020/12/14 01:24:59;;;;;;;28.55;17.52;;;3.10;99.90;;;;;;5076038;28;20043;-50
2020/12/14 01:28:03;;;;;;;22.92;14.65;;;3.00;99.90;;;;;;5085737;28;20047;-50
2020/12/14 01:31:08;;;;;;;23.42;15.18;;;3.10;99.90;;;;;;5089067;28;20051;-50
2020/12/14 01:34:12;;;;;;;24.13;14.38;;;3.10;99.90;;;;;;5084426;28;20414;-50
2020/12/14 01:37:18;;;;;;;25.58;14.20;;;3.00;99.90;;;;;;5085769;28;20043;-49
2020/12/14 01:40:22;;;;;;;22.95;13.43;;;3.10;99.90;;;;;;5081275;28;20039;-51
2020/12/14 01:43:27;;;;;;;24.48;14.25;;;3.10;99.90;;;;;;5085576;28;20059;-50
2020/12/14 01:46:31;;;;;;;22.83;14.52;;;3.10;99.90;;;;;;5089228;28;20047;-49
2020/12/14 01:49:35;;;;;;;20.35;13.35;;;3.10;99.90;;;;;;5088718;28;20525;-50
2020/12/14 01:52:41;;;;;;;23.35;13.88;;;3.00;99.90;;;;;;5089266;28;20055;-50
2020/12/14 01:55:47;;;;;;;20.80;13.68;;;3.00;99.90;;;;;;5089327;28;20510;-50
2020/12/14 01:58:51;;;;;;;22.17;15.02;;;3.00;99.90;;;;;;5088680;28;20522;-49
2020/12/14 02:01:55;;;;;;;26.80;14.23;;;2.90;99.90;;;;;;5088691;28;20047;-50
2020/12/14 02:05:00;;;;;;;21.67;14.15;;;2.80;99.90;;;;;;5088850;28;20414;-49
2020/12/14 02:08:08;;;;;;;19.83;14.13;;;2.80;99.90;;;;;;5076943;28;20043;-51
2020/12/14 02:11:13;;;;;;;22.30;15.52;;;2.80;99.90;;;;;;5088508;28;20051;-50
2020/12/14 02:14:17;;;;;;;25.33;16.35;;;2.80;99.90;;;;;;5088668;28;20123;-49
2020/12/14 02:17:21;;;;;;;24.08;15.88;;;2.70;99.90;;;;;;5089175;28;20051;-49
2020/12/14 02:20:25;;;;;;;27.30;17.08;;;2.70;99.90;;;;;;5088730;28;20051;-51
2020/12/14 02:23:30;;;;;;;31.02;20.83;;;2.70;99.90;;;;;;5089171;28;20047;-50
2020/12/14 02:26:34;;;;;;;38.35;23.58;;;2.70;99.90;;;;;;5082110;28;20055;-49
2020/12/14 02:29:38;;;;;;;30.90;18.88;;;2.80;99.90;;;;;;5084235;28;20605;-50
2020/12/14 02:32:41;;;;;;;35.10;22.48;;;2.80;99.90;;;;;;5084496;28;20043;-50
2020/12/14 02:35:46;;;;;;;31.95;22.13;;;2.80;99.90;;;;;;5088896;28;20043;-50
2020/12/14 02:38:51;;;;;;;40.05;21.40;;;2.80;99.90;;;;;;5088728;28;20043;-49
2020/12/14 02:41:54;;;;;;;33.15;20.90;;;2.80;99.90;;;;;;5088024;28;20525;-49
2020/12/14 02:44:59;;;;;;;29.58;19.00;;;2.80;99.90;;;;;;5088945;28;20043;-49
2020/12/14 02:48:03;;;;;;;26.25;19.48;;;2.70;99.90;;;;;;5074867;28;20043;-50
2020/12/14 02:51:07;;;;;;;28.55;19.20;;;2.60;99.90;;;;;;5091450;28;20043;-53
2020/12/14 02:54:12;;;;;;;35.05;21.77;;;2.50;99.90;;;;;;5092362;28;20035;-52
2020/12/14 02:57:17;;;;;;;34.08;21.45;;;2.50;99.90;;;;;;5092035;28;20042;-49
2020/12/14 03:00:22;;;;;;;42.90;26.90;;;2.60;99.90;;;;;;5091452;28;20039;-50
2020/12/14 03:03:26;;;;;;;38.08;23.45;;;2.70;99.90;;;;;;5092110;28;20051;-50
2020/12/14 03:06:30;;;;;;;29.33;19.85;;;2.70;99.90;;;;;;5092481;28;20517;-50
2020/12/14 03:09:34;;;;;;;34.03;22.02;;;2.60;99.90;;;;;;5092369;28;20039;-50
2020/12/14 03:12:38;;;;;;;39.90;24.52;;;2.50;99.90;;;;;;5091291;28;20043;-51
2020/12/14 03:15:42;;;;;;;38.17;24.52;;;2.50;99.90;;;;;;5092095;28;20390;-50
2020/12/14 03:18:45;;;;;;;41.45;25.95;;;2.50;99.90;;;;;;5091507;28;20043;-50
2020/12/14 03:21:50;;;;;;;38.60;24.58;;;2.40;99.90;;;;;;5091350;28;20031;-49
2020/12/14 03:24:54;;;;;;;38.50;24.90;;;2.40;99.90;;;;;;5091479;28;20406;-49
2020/12/14 03:27:58;;;;;;;37.55;25.20;;;2.40;99.90;;;;;;5090583;28;20051;-49
2020/12/14 03:31:03;;;;;;;42.92;26.70;;;2.40;99.90;;;;;;5091038;28;20035;-50
2020/12/14 03:34:07;;;;;;;38.25;24.02;;;2.40;99.90;;;;;;5091399;28;20042;-49
2020/12/14 03:37:11;;;;;;;41.25;25.73;;;2.40;99.90;;;;;;5091456;28;20051;-48
2020/12/14 03:40:16;;;;;;;35.60;23.48;;;2.40;99.90;;;;;;5091830;28;20043;-51
2020/12/14 03:43:20;;;;;;;40.72;25.30;;;2.30;99.90;;;;;;5091101;28;20433;-50
2020/12/14 03:46:31;;;;;;;39.03;27.33;;;2.20;99.90;;;;;;5091242;28;20035;-50
2020/12/14 03:49:35;;;;;;;41.33;26.65;;;2.30;99.90;;;;;;5091181;28;20062;-49
2020/12/14 03:52:39;;;;;;;45.05;28.08;;;2.30;99.90;;;;;;5090875;28;20536;-51
2020/12/14 03:55:43;;;;;;;42.28;27.98;;;2.30;99.90;;;;;;5091259;28;20039;-50
2020/12/14 03:58:47;;;;;;;42.67;27.40;;;2.40;99.90;;;;;;5090647;28;20039;-49
2020/12/14 04:01:55;;;;;;;216.52;38.20;;;2.30;99.90;;;;;;5101514;28;20051;-49
2020/12/14 04:04:59;;;;;;;39.55;25.33;;;2.00;99.90;;;;;;5091485;28;20047;-50
2020/12/14 04:08:03;;;;;;;39.97;24.65;;;1.90;99.90;;;;;;5081795;28;20561;-50
2020/12/14 04:11:07;;;;;;;36.78;24.00;;;1.80;99.90;;;;;;5091520;28;20047;-50
2020/12/14 04:14:11;;;;;;;40.65;26.35;;;1.80;99.90;;;;;;5091240;28;20142;-50
2020/12/14 04:17:16;;;;;;;39.88;25.67;;;1.80;99.90;;;;;;5091501;28;20054;-51
2020/12/14 04:20:20;;;;;;;39.63;25.23;;;1.80;99.90;;;;;;5091352;28;20051;-50
2020/12/14 04:23:25;;;;;;;40.85;25.33;;;1.80;99.90;;;;;;5090904;28;20047;-50
2020/12/14 04:26:29;;;;;;;46.78;30.15;;;1.70;99.90;;;;;;5091503;28;20402;-50
2020/12/14 04:29:33;;;;;;;47.25;29.00;;;1.80;99.90;;;;;;5090778;28;20043;-50
2020/12/14 04:32:38;;;;;;;46.38;30.13;;;1.90;99.90;;;;;;5090790;28;20098;-50
2020/12/14 04:35:42;;;;;;;47.65;29.52;;;2.00;99.90;;;;;;5090344;28;20556;-50
2020/12/14 04:38:46;;;;;;;44.28;28.13;;;2.00;99.90;;;;;;5091156;28;20051;-51
2020/12/14 04:41:56;;;;;;;43.25;27.75;;;1.90;99.90;;;;;;5089916;28;20047;-50
2020/12/14 04:45:02;;;;;;;41.60;25.13;;;2.00;99.90;;;;;;5076960;28;20512;-50
2020/12/14 04:48:08;;;;;;;33.22;21.80;;;2.10;99.90;;;;;;5090664;28;20098;-55
2020/12/14 04:51:12;;;;;;;30.55;19.17;;;2.00;99.90;;;;;;5090264;28;20051;-50
2020/12/14 04:54:17;;;;;;;32.67;19.23;;;2.00;99.90;;;;;;5090810;28;20064;-50
2020/12/14 04:57:22;;;;;;;32.67;19.55;;;2.10;99.90;;;;;;5090590;28;20047;-54
2020/12/14 05:00:26;;;;;;;31.10;19.60;;;2.10;99.90;;;;;;5090396;28;20039;-55
2020/12/14 05:03:30;;;;;;;26.48;17.20;;;2.10;99.90;;;;;;5079702;28;20039;-53
2020/12/14 05:06:53;;;;;;;31.33;19.35;;;2.10;99.90;;;;;;5082646;28;20047;-52
2020/12/14 05:10:00;;;;;;;33.15;20.58;;;2.10;99.90;;;;;;5081699;28;20047;-53
2020/12/14 05:13:10;;;;;;;35.28;24.05;;;2.10;99.90;;;;;;5082300;28;20043;-53
2020/12/14 05:16:14;;;;;;;32.17;22.38;;;2.10;99.90;;;;;;5080380;28;20051;-53
2020/12/14 05:19:18;;;;;;;40.97;24.00;;;2.10;99.90;;;;;;5077982;28;20046;-55
2020/12/14 05:22:22;;;;;;;37.13;23.48;;;2.10;99.90;;;;;;5077806;28;20044;-55
2020/12/14 05:25:27;;;;;;;28.25;17.60;;;2.10;99.90;;;;;;5091555;28;20043;-54
2020/12/14 05:28:33;;;;;;;23.25;14.50;;;2.10;99.90;;;;;;5079030;28;20039;-55
2020/12/14 05:31:37;;;;;;;23.40;16.63;;;2.10;99.90;;;;;;5079058;28;20047;-54
2020/12/14 05:34:42;;;;;;;1999.90;582.50;;;2.10;99.90;;;;;;5079675;28;20035;-54
2020/12/14 05:37:47;;;;;;;293.58;50.85;;;2.10;99.90;;;;;;5084770;28;20046;-54
2020/12/14 05:41:00;;;;;;;91.15;29.90;;;2.30;99.90;;;;;;5097460;28;20043;-55
2020/12/14 05:44:06;;;;;;;38.25;21.42;;;2.40;99.90;;;;;;5092026;28;20513;-52
2020/12/14 05:47:30;;;;;;;37.05;22.58;;;2.30;99.90;;;;;;5096682;28;20038;-55
2020/12/14 05:50:34;;;;;;;32.05;19.02;;;2.30;99.90;;;;;;5072669;28;20047;-54
2020/12/14 05:53:40;;;;;;;32.00;20.73;;;2.20;99.90;;;;;;5087739;28;20043;-49
2020/12/14 05:56:48;;;;;;;35.20;20.67;;;2.00;99.90;;;;;;5079952;28;20051;-54
2020/12/14 06:00:05;;;;;;;32.08;20.75;;;1.80;99.90;;;;;;5084717;28;20044;-51
2020/12/14 06:03:10;;;;;;;33.72;19.80;;;1.70;99.90;;;;;;5091020;28;20035;-55
2020/12/14 06:06:16;;;;;;;31.52;20.50;;;1.70;99.90;;;;;;5081984;28;20122;-55
2020/12/14 06:09:26;;;;;;;34.25;21.58;;;1.70;99.90;;;;;;5081744;28;20398;-50
2020/12/14 06:12:31;;;;;;;35.13;22.17;;;1.80;99.90;;;;;;5080872;28;20047;-54
2020/12/14 06:15:39;;;;;;;32.58;20.75;;;1.80;99.90;;;;;;5094782;28;20417;-54
2020/12/14 06:18:45;;;;;;;39.35;25.88;;;1.70;99.90;;;;;;5083544;28;20736;-54
2020/12/14 06:22:02;;;;;;;39.00;24.17;;;1.60;99.90;;;;;;5086311;28;20119;-51
2020/12/14 06:25:06;;;;;;;37.80;25.50;;;1.60;99.90;;;;;;5086085;28;20406;-55
2020/12/14 06:28:37;;;;;;;38.20;22.00;;;1.60;99.90;;;;;;5084359;28;20047;-49
2020/12/14 06:31:41;;;;;;;76.65;31.20;;;1.60;99.90;;;;;;5086586;28;20047;-53
2020/12/14 06:34:46;;;;;;;1999.90;479.92;;;1.60;99.90;;;;;;5087179;28;20038;-50
2020/12/14 06:37:54;;;;;;;1999.90;384.30;;;1.70;99.90;;;;;;5088914;28;20509;-51
2020/12/14 06:40:59;;;;;;;41.67;27.05;;;1.90;99.90;;;;;;5088330;28;20039;-55
2020/12/14 06:44:13;;;;;;;45.78;28.75;;;2.00;99.90;;;;;;5090682;28;20043;-52
2020/12/14 06:47:18;;;;;;;41.40;27.38;;;1.80;99.90;;;;;;5085409;28;20047;-56
2020/12/14 06:50:28;;;;;;;50.05;30.58;;;1.70;99.90;;;;;;5088510;28;20051;-50
2020/12/14 06:53:52;;;;;;;58.03;32.60;;;1.70;99.90;;;;;;5082597;28;20518;-54
2020/12/14 06:56:59;;;;;;;75.97;35.70;;;1.50;99.90;;;;;;5080838;28;20048;-53
2020/12/14 07:00:05;;;;;;;69.88;33.85;;;1.30;99.90;;;;;;5085726;28;20039;-55
2020/12/14 07:03:29;;;;;;;60.90;32.08;;;1.20;99.90;;;;;;5080932;28;20043;-51
2020/12/14 07:06:33;;;;;;;226.27;48.05;;;1.20;99.90;;;;;;5084996;28;20406;-52
2020/12/14 07:09:39;;;;;;;136.48;37.22;;;1.30;99.90;;;;;;5083656;28;20047;-53
2020/12/14 07:12:46;;;;;;;315.73;44.28;;;1.30;99.90;;;;;;5078627;28;20052;-53
2020/12/14 07:16:06;;;;;;;133.40;30.85;;;1.80;99.90;;;;;;5085918;28;20043;-52
2020/12/14 07:19:12;;;;;;;182.60;31.88;;;2.70;99.90;;;;;;5083379;28;20060;-54
2020/12/14 07:22:50;;;;;;;108.28;19.67;;;3.90;99.90;;;;;;5077886;28;20044;-53
2020/12/14 07:25:55;;;;;;;53.28;14.80;;;5.80;99.90;;;;;;5082393;28;20051;-54
2020/12/14 07:29:00;;;;;;;22.65;13.40;;;7.70;99.90;;;;;;5081903;28;20043;-50
2020/12/14 07:32:05;;;;;;;18.60;11.55;;;9.40;99.90;;;;;;5084585;28;20051;-54
2020/12/14 07:35:10;;;;;;;17.48;10.90;;;11.30;99.90;;;;;;5077758;28;20050;-49
2020/12/14 07:38:14;;;;;;;13.63;10.00;;;12.90;99.90;;;;;;5089031;28;20054;-55
2020/12/14 07:41:19;;;;;;;16.50;12.02;;;14.60;99.90;;;;;;5089736;28;20051;-51
2020/12/14 07:44:24;;;;;;;13.73;10.23;;;16.20;99.90;;;;;;5088659;28;20039;-54
2020/12/14 07:47:28;;;;;;;20.42;12.52;;;18.00;98.20;;;;;;5098381;28;20047;-53
2020/12/14 07:50:32;;;;;;;17.70;13.50;;;19.30;94.00;;;;;;5091194;28;20039;-56
2020/12/14 07:53:36;;;;;;;15.00;12.85;;;20.00;90.60;;;;;;5093583;28;20050;-54
2020/12/14 07:57:02;;;;;;;16.55;11.05;;;20.80;88.00;;;;;;5096824;28;20075;-52
2020/12/14 08:00:13;;;;;;;13.95;10.02;;;21.10;81.40;;;;;;5095675;28;20056;-53
2020/12/14 08:03:18;;;;;;;14.20;9.25;;;22.40;78.50;;;;;;5100410;28;20046;-53
2020/12/14 08:06:22;;;;;;;11.68;8.50;;;23.30;75.00;;;;;;5098510;28;20043;-54
2020/12/14 08:09:39;;;;;;;28.23;18.88;;;23.80;69.60;;;;;;5109443;28;20063;-58
2020/12/14 08:12:44;;;;;;;23.77;11.93;;;24.00;67.80;;;;;;5087163;28;20043;-54
2020/12/14 08:15:48;;;;;;;13.57;8.23;;;24.50;67.00;;;;;;5105781;28;20062;-51
2020/12/14 08:18:56;;;;;;;16.83;14.15;;;25.80;64.30;;;;;;5094899;28;20039;-50
2020/12/14 08:22:01;;;;;;;15.70;13.15;;;26.40;60.40;;;;;;5093433;28;20047;-51
2020/12/14 08:25:06;;;;;;;8.25;7.40;;;24.80;57.90;;;;;;5087824;28;20043;-49
2020/12/14 08:28:10;;;;;;;9.07;8.10;;;21.60;62.50;;;;;;5088830;28;20046;-51
2020/12/14 08:31:14;;;;;;;8.32;6.97;;;19.30;66.30;;;;;;5087795;28;20040;-52
2020/12/14 08:34:36;;;;;;;9.32;7.70;;;19.90;68.60;;;;;;5088725;28;20032;-53
2020/12/14 08:37:41;;;;;;;8.73;7.20;;;21.90;66.90;;;;;;5088546;28;20402;-55
2020/12/14 08:41:02;;;;;;;9.90;7.30;;;23.20;65.60;;;;;;5084981;28;20063;-51
2020/12/14 08:44:18;;;;;;;8.25;7.20;;;24.50;63.80;;;;;;5088039;28;20047;-53
2020/12/14 08:47:23;;;;;;;10.10;7.43;;;25.20;60.10;;;;;;5086530;28;20044;-52
2020/12/14 08:50:28;;;;;;;9.02;7.20;;;26.30;61.00;;;;;;5086228;28;20043;-51
2020/12/14 08:53:33;;;;;;;10.27;7.53;;;26.60;56.80;;;;;;5086464;28;20043;-52
2020/12/14 08:56:37;;;;;;;8.70;7.80;;;23.60;59.00;;;;;;5086080;28;20043;-49
2020/12/14 08:59:41;;;;;;;11.73;8.52;;;23.90;57.90;;;;;;5088483;28;20035;-53
2020/12/14 09:02:48;;;;;;;9.20;8.18;;;23.50;59.50;;;;;;5084023;28;20406;-49
2020/12/14 09:05:52;;;;;;;11.02;7.63;;;22.60;59.00;;;;;;5091951;28;20406;-51
2020/12/14 09:08:57;;;;;;;9.77;7.63;;;22.00;60.00;;;;;;5089157;28;20039;-54
2020/12/14 09:12:10;;;;;;;7.65;6.80;;;22.00;62.00;;;;;;5086329;28;20525;-52
2020/12/14 09:15:14;;;;;;;8.63;7.30;;;24.10;59.80;;;;;;5085259;28;20036;-53
2020/12/14 09:18:18;;;;;;;9.98;7.57;;;23.30;57.70;;;;;;5085294;28;20040;-51
2020/12/14 09:21:23;;;;;;;12.73;8.00;;;21.20;59.90;;;;;;5084328;28;20031;-52
2020/12/14 09:24:36;;;;;;;10.93;7.05;;;19.80;62.60;;;;;;5086369;28;20521;-53
2020/12/14 09:27:40;;;;;;;9.13;7.40;;;21.60;62.10;;;;;;5082736;28;20055;-54
2020/12/14 09:30:45;;;;;;;13.02;7.38;;;23.30;59.90;;;;;;5075305;28;20399;-50
2020/12/14 09:33:49;;;;;;;7.38;6.65;;;25.80;59.40;;;;;;5078598;28;20047;-52
2020/12/14 09:36:55;;;;;;;7.85;6.72;;;27.70;55.20;;;;;;5085636;28;20044;-49
2020/12/14 09:40:01;;;;;;;10.38;6.50;;;27.70;53.10;;;;;;5086780;28;20688;-52
2020/12/14 09:43:05;;;;;;;8.77;6.13;;;28.20;53.40;;;;;;5078746;28;20035;-54
2020/12/14 09:46:10;;;;;;;7.82;5.95;;;29.90;52.60;;;;;;5080195;28;20051;-50
2020/12/14 09:49:15;;;;;;;8.23;6.80;;;31.10;50.30;;;;;;5087735;28;20046;-51
2020/12/14 09:52:19;;;;;;;9.23;6.70;;;29.40;47.80;;;;;;5087223;28;20043;-52
2020/12/14 09:55:23;;;;;;;10.45;6.57;;;26.90;49.50;;;;;;5087990;28;20044;-50
2020/12/14 09:58:27;;;;;;;7.90;7.10;;;22.90;53.60;;;;;;5086472;28;20537;-53
2020/12/14 10:01:31;;;;;;;8.13;7.32;;;21.20;56.60;;;;;;5105281;28;20035;-55
2020/12/14 10:04:35;;;;;;;8.23;6.88;;;23.40;58.50;;;;;;5093939;28;20043;-53
2020/12/14 10:07:42;;;;;;;7.70;6.82;;;25.60;56.60;;;;;;5089459;28;20035;-54
2020/12/14 10:10:49;;;;;;;8.43;6.85;;;27.20;54.60;;;;;;5090235;28;20510;-49
2020/12/14 10:13:53;;;;;;;8.80;6.03;;;28.70;53.50;;;;;;5088279;28;20041;-53
2020/12/14 10:17:00;;;;;;;7.57;6.60;;;30.00;49.70;;;;;;5087579;28;20048;-51
2020/12/14 10:20:05;;;;;;;9.00;6.75;;;30.40;50.50;;;;;;5089824;28;20044;-53
2020/12/14 10:23:11;;;;;;;6.88;6.07;;;31.60;48.80;;;;;;5087742;28;20638;-51
2020/12/14 10:26:16;;;;;;;8.20;6.93;;;32.10;48.50;;;;;;5090687;28;20050;-53
2020/12/14 10:29:22;;;;;;;9.38;6.63;;;30.60;48.40;;;;;;5090775;28;20042;-53
2020/12/14 10:32:26;;;;;;;8.88;7.00;;;28.60;48.90;;;;;;5089284;28;20039;-53
2020/12/14 10:35:31;;;;;;;8.20;7.40;;;25.30;51.70;;;;;;5089576;28;20407;-53
2020/12/14 10:38:35;;;;;;;8.57;7.63;;;21.10;57.60;;;;;;5090399;28;20398;-53
2020/12/14 10:41:40;;;;;;;8.73;7.82;;;19.20;61.30;;;;;;5091159;28;20550;-53
2020/12/14 10:44:44;;;;;;;9.65;8.65;;;19.10;64.20;;;;;;5086950;28;20438;-54
2020/12/14 10:47:49;;;;;;;9.32;7.72;;;21.50;59.70;;;;;;5089703;28;20028;-51
2020/12/14 10:50:54;;;;;;;9.18;8.25;;;21.90;60.00;;;;;;5090221;28;20039;-53
2020/12/14 10:53:58;;;;;;;10.73;8.77;;;19.10;63.80;;;;;;5091170;28;20406;-53
2020/12/14 10:57:03;;;;;;;10.45;8.25;;;17.80;66.40;;;;;;5102918;28;20039;-52
2020/12/14 11:00:09;;;;;;;10.27;8.23;;;19.10;68.30;;;;;;5101712;28;20039;-52
2020/12/14 11:03:14;;;;;;;8.77;7.88;;;21.90;61.90;;;;;;5099120;28;20043;-51
2020/12/14 11:06:18;;;;;;;9.30;8.38;;;22.80;59.80;;;;;;5090379;28;20050;-51
2020/12/14 11:09:23;;;;;;;10.43;7.95;;;22.20;60.50;;;;;;5091249;28;20043;-52
2020/12/14 11:12:27;;;;;;;8.27;7.20;;;24.40;57.10;;;;;;5088239;28;20089;-52
2020/12/14 11:15:31;;;;;;;7.90;7.10;;;26.60;55.70;;;;;;5089402;28;20036;-53
2020/12/14 11:18:35;;;;;;;7.65;6.47;;;25.00;55.10;;;;;;5090580;28;20514;-52
2020/12/14 11:21:59;;;;;;;8.55;7.50;;;24.60;54.00;;;;;;5089876;28;20363;-52
2020/12/14 11:25:11;;;;;;;;;;;25.30;53.60;;;;;;5090089;28;20031;-54
2020/12/14 11:28:15;;;;;;;9.57;6.82;;;26.90;53.10;;;;;;5089128;28;19935;-50
2020/12/14 11:31:19;;;;;;;9.30;8.05;;;26.40;54.70;;;;;;5088713;28;20142;-48
2020/12/14 11:34:24;;;;;;;8.30;7.50;;;26.80;55.60;;;;;;5087841;28;20524;-48
2020/12/14 11:37:28;;;;;;;9.70;7.30;;;26.50;54.50;;;;;;5088208;28;20667;-49
2020/12/14 11:40:32;;;;;;;8.82;7.43;;;26.20;56.00;;;;;;5089017;28;20032;-49
2020/12/14 11:43:37;;;;;;;8.02;7.05;;;26.00;53.40;;;;;;5089784;28;20039;-50
2020/12/14 11:46:49;;;;;;;10.18;8.05;;;26.50;54.40;;;;;;5087769;28;20491;-50
2020/12/14 11:49:52;;;;;;;8.73;7.15;;;27.60;54.40;;;;;;5089047;28;20659;-50
2020/12/14 11:52:56;;;;;;;8.60;7.63;;;27.70;52.90;;;;;;5089598;28;20406;-54
2020/12/14 11:56:00;;;;;;;10.02;6.97;;;28.70;52.80;;;;;;5086786;28;20043;-51
2020/12/14 11:59:05;;;;;;;9.48;7.28;;;28.50;52.10;;;;;;5087322;28;20517;-49
2020/12/14 12:02:09;;;;;;;9.68;8.20;;;27.20;52.40;;;;;;5088255;28;20036;-48
2020/12/14 12:05:13;;;;;;;8.70;7.68;;;26.90;54.10;;;;;;5088397;28;20036;-51
2020/12/14 12:08:17;;;;;;;10.25;7.78;;;28.90;53.10;;;;;;5087203;28;20047;-50
2020/12/14 12:11:23;;;;;;;13.77;7.90;;;25.60;52.00;;;;;;5084111;28;20545;-49
2020/12/14 12:14:27;;;;;;;8.88;7.65;;;25.50;57.00;;;;;;5089522;28;20039;-48
2020/12/14 12:17:32;;;;;;;8.55;7.40;;;26.20;55.70;;;;;;5088045;28;20043;-50
2020/12/14 12:20:37;;;;;;;9.23;7.18;;;26.80;53.50;;;;;;5087154;28;20062;-49
2020/12/14 12:23:42;;;;;;;7.78;6.80;;;26.90;52.80;;;;;;5087298;28;20039;-49
2020/12/14 12:26:51;;;;;;;7.85;7.03;;;26.50;54.60;;;;;;5089445;28;20028;-51
2020/12/14 12:29:55;;;;;;;9.80;7.32;;;28.00;53.70;;;;;;5097556;28;20051;-50
2020/12/14 12:33:01;;;;;;;6.40;5.80;;;29.10;53.50;;;;;;5088145;28;20050;-49
2020/12/14 12:36:06;;;;;;;6.75;6.03;;;30.50;51.90;;;;;;5088634;28;20042;-52
2020/12/14 12:39:10;;;;;;;6.35;5.60;;;30.80;49.70;;;;;;5095807;28;20046;-53
2020/12/14 12:42:17;;;;;;;9.43;6.03;;;30.00;49.60;;;;;;5086538;28;20040;-49
2020/12/14 12:45:21;;;;;;;5.63;4.93;;;29.20;50.80;;;;;;5087701;28;20047;-49
2020/12/14 12:48:25;;;;;;;5.40;4.78;;;29.50;48.60;;;;;;5087802;28;20050;-51
2020/12/14 12:51:29;;;;;;;4.80;4.25;;;29.20;48.40;;;;;;5088339;28;20051;-49
2020/12/14 12:54:33;;;;;;;5.18;4.45;;;29.00;48.80;;;;;;5083981;28;20042;-51
2020/12/14 12:57:38;;;;;;;3.92;3.55;;;29.10;49.10;;;;;;5088128;28;20032;-48
2020/12/14 13:00:43;;;;;;;4.47;3.67;;;28.40;48.50;;;;;;5088092;28;20032;-49
2020/12/14 13:03:48;;;;;;;4.15;3.42;;;28.80;48.70;;;;;;5086857;28;20516;-50
2020/12/14 13:06:52;;;;;;;3.47;3.08;;;30.20;50.10;;;;;;5087522;28;20051;-50
2020/12/14 13:09:56;;;;;;;3.42;3.13;;;31.30;48.10;;;;;;5098436;28;20051;-49
2020/12/14 13:12:59;;;;;;;6.50;4.05;;;31.30;46.70;;;;;;5088668;28;20520;-52
2020/12/14 13:16:04;;;;;;;8.88;4.15;;;31.70;47.10;;;;;;5087950;28;20040;-53
2020/12/14 13:19:09;;;;;;;5.32;4.00;;;31.40;47.50;;;;;;5087651;28;20040;-50
2020/12/14 13:22:13;;;;;;;5.43;4.35;;;31.50;47.50;;;;;;5084200;28;20517;-50
2020/12/14 13:25:17;;;;;;;5.03;4.22;;;31.20;47.60;;;;;;5087415;28;20043;-51
2020/12/14 13:28:21;;;;;;;4.90;3.95;;;31.10;47.70;;;;;;5082228;28;20053;-50
2020/12/14 13:31:27;;;;;;;4.28;3.78;;;31.10;48.00;;;;;;5069851;28;20035;-53
2020/12/14 13:34:32;;;;;;;5.32;4.10;;;29.10;45.50;;;;;;5086550;28;20047;-49
2020/12/14 13:37:36;;;;;;;5.15;4.40;;;24.80;51.70;;;;;;5082443;28;20514;-51
2020/12/14 13:40:41;;;;;;;7.05;4.85;;;23.70;56.10;;;;;;5087467;28;20521;-52
2020/12/14 13:43:45;;;;;;;6.40;5.32;;;23.60;53.60;;;;;;5077964;28;20526;-48
2020/12/14 13:46:52;;;;;;;7.15;5.03;;;23.70;55.40;;;;;;5085755;28;20106;-53
2020/12/14 13:49:56;;;;;;;6.68;5.55;;;24.90;54.20;;;;;;5080007;28;20032;-50
2020/12/14 13:53:00;;;;;;;6.82;5.10;;;24.90;53.30;;;;;;5085984;28;20028;-54
2020/12/14 13:56:04;;;;;;;7.47;4.43;;;24.40;53.90;;;;;;5078340;28;20055;-51
2020/12/14 13:59:08;;;;;;;5.50;4.57;;;24.40;54.20;;;;;;5084853;28;20039;-52
2020/12/14 14:02:12;;;;;;;7.72;5.03;;;24.30;55.20;;;;;;5083514;28;20036;-53
2020/12/14 14:05:16;;;;;;;6.40;5.05;;;23.60;55.30;;;;;;5085216;28;20047;-49
2020/12/14 14:08:21;;;;;;;8.38;5.10;;;23.50;56.80;;;;;;5086412;28;20055;-52
2020/12/14 14:11:25;;;;;;;5.97;4.53;;;24.10;55.10;;;;;;5082067;28;20118;-55
2020/12/14 14:14:29;;;;;;;5.53;4.38;;;24.90;54.40;;;;;;5086085;28;20047;-52
2020/12/14 14:17:34;;;;;;;5.72;4.70;;;25.40;54.30;;;;;;5079530;28;20518;-52
2020/12/14 14:20:38;;;;;;;7.15;4.65;;;25.40;52.50;;;;;;5084247;28;20407;-50
2020/12/14 14:23:42;;;;;;;6.38;4.63;;;24.90;54.40;;;;;;5078075;28;20574;-50
2020/12/14 14:26:54;;;;;;;9.18;6.05;;;24.60;55.30;;;;;;5088391;28;20039;-50
2020/12/14 14:29:59;;;;;;;11.20;5.22;;;24.20;56.40;;;;;;5077667;28;20506;-52
2020/12/14 14:33:05;;;;;;;11.02;5.43;;;24.30;55.50;;;;;;5085493;28;20047;-55
2020/12/14 14:36:11;;;;;;;6.43;5.05;;;24.80;56.10;;;;;;5080891;28;20102;-53
2020/12/14 14:39:16;;;;;;;8.15;5.53;;;24.60;54.90;;;;;;5083177;28;20051;-51
2020/12/14 14:42:20;;;;;;;6.78;4.35;;;24.40;56.40;;;;;;5078234;28;20059;-49
2020/12/14 14:45:25;;;;;;;7.18;4.97;;;24.30;57.90;;;;;;5076534;28;20040;-55
2020/12/14 14:48:29;;;;;;;6.00;4.70;;;24.40;57.10;;;;;;5092477;28;20035;-52
2020/12/14 14:51:33;;;;;;;8.07;5.20;;;24.10;56.60;;;;;;5091578;28;20043;-52
2020/12/14 14:54:38;;;;;;;7.80;5.20;;;23.70;57.60;;;;;;5092782;28;20402;-49
2020/12/14 14:57:42;;;;;;;7.57;5.55;;;22.90;58.90;;;;;;5092351;28;20047;-52
2020/12/14 15:00:47;;;;;;;8.07;5.70;;;22.70;60.20;;;;;;5091494;28;20028;-55
2020/12/14 15:03:52;;;;;;;6.53;5.20;;;22.30;62.20;;;;;;5091877;28;20531;-50
2020/12/14 15:06:56;;;;;;;9.75;5.68;;;22.00;62.50;;;;;;5091712;28;20410;-49
2020/12/14 15:10:00;;;;;;;7.97;5.60;;;21.70;62.70;;;;;;5091939;28;20055;-49
2020/12/14 15:13:05;;;;;;;16.38;6.13;;;21.30;63.60;;;;;;5091635;28;20036;-53
2020/12/14 15:16:09;;;;;;;16.63;5.38;;;21.00;64.40;;;;;;5092401;28;20039;-52
2020/12/14 15:19:13;;;;;;;17.90;5.88;;;20.50;65.00;;;;;;5091711;28;20509;-48
2020/12/14 15:22:17;;;;;;;9.35;5.18;;;19.80;66.80;;;;;;5090860;28;20059;-54
2020/12/14 15:25:22;;;;;;;7.78;5.13;;;19.20;67.90;;;;;;5092023;28;20047;-48
2020/12/14 15:28:27;;;;;;;11.02;6.38;;;18.70;70.70;;;;;;5081587;28;20104;-53
2020/12/14 15:31:33;;;;;;;14.18;7.38;;;18.00;73.20;;;;;;5091441;28;20572;-50
2020/12/14 15:34:39;;;;;;;15.75;8.18;;;16.90;77.00;;;;;;5091569;28;20043;-49
2020/12/14 15:37:43;;;;;;;13.30;8.38;;;15.90;80.20;;;;;;5088024;28;20051;-54
2020/12/14 15:40:48;;;;;;;11.43;7.68;;;15.00;79.00;;;;;;5091390;28;20059;-48
2020/12/14 15:43:52;;;;;;;11.38;6.80;;;14.10;81.70;;;;;;5089738;28;20047;-53
2020/12/14 15:46:56;;;;;;;8.57;6.03;;;13.40;81.90;;;;;;5090158;28;20047;-50
2020/12/14 15:50:01;;;;;;;12.18;6.43;;;12.90;83.70;;;;;;5091208;28;20511;-49
2020/12/14 15:53:07;;;;;;;17.60;11.38;;;12.40;86.30;;;;;;5091184;28;20043;-49
2020/12/14 15:56:22;;;;;;;11.55;8.20;;;12.00;87.90;;;;;;5091277;28;20059;-49
2020/12/14 15:59:28;;;;;;;14.10;9.18;;;11.60;90.60;;;;;;5087469;28;20035;-53